sensor_id;sensor_type;location;lat;lon;timestamp;pressure;altitude;pressure_sealevel;temperature;humidity
11672;BME280;5892;43.412;24.612;2023-09-07T00:00:44;100513.44;;;22.09;55.06
11672;BME280;5892;43.412;24.612;2023-09-07T00:03:12;100529.06;;;22.14;54.27
11672;BME280;5892;43.412;24.612;2023-09-07T00:05:39;100516.63;;;22.08;54.93
11672;BME280;5892;43.412;24.612;2023-09-07T00:08:06;100513.78;;;22.04;54.68
11672;BME280;5892;43.412;24.612;2023-09-07T00:10:34;100520.94;;;22.02;54.75
11672;BME280;5892;43.412;24.612;2023-09-07T00:13:02;100528.00;;;21.92;54.13
11672;BME280;5892;43.412;24.612;2023-09-07T00:15:29;100515.28;;;21.94;54.94
11672;BME280;5892;43.412;24.612;2023-09-07T00:17:55;100517.69;;;21.96;55.04
11672;BME280;5892;43.412;24.612;2023-09-07T00:20:24;100517.66;;;21.92;54.89
11672;BME280;5892;43.412;24.612;2023-09-07T00:22:50;100520.94;;;21.98;54.23
11672;BME280;5892;43.412;24.612;2023-09-07T00:25:17;100519.63;;;21.92;54.19
11672;BME280;5892;43.412;24.612;2023-09-07T00:27:47;100517.59;;;21.89;54.25
11672;BME280;5892;43.412;24.612;2023-09-07T00:30:14;100513.19;;;21.88;54.19
11672;BME280;5892;43.412;24.612;2023-09-07T00:32:41;100517.59;;;21.89;54.02
11672;BME280;5892;43.412;24.612;2023-09-07T00:35:08;100516.03;;;21.91;53.69
11672;BME280;5892;43.412;24.612;2023-09-07T00:37:35;100504.78;;;21.84;53.28
11672;BME280;5892;43.412;24.612;2023-09-07T00:40:02;100511.59;;;21.87;53.37
11672;BME280;5892;43.412;24.612;2023-09-07T00:42:29;100491.06;;;21.69;52.87
11672;BME280;5892;43.412;24.612;2023-09-07T00:44:57;100486.25;;;21.66;53.34
11672;BME280;5892;43.412;24.612;2023-09-07T00:47:24;100516.75;;;21.85;53.23
11672;BME280;5892;43.412;24.612;2023-09-07T00:49:51;100506.63;;;21.70;53.55
11672;BME280;5892;43.412;24.612;2023-09-07T00:52:18;100514.72;;;21.82;53.36
11672;BME280;5892;43.412;24.612;2023-09-07T00:54:46;100517.94;;;21.84;53.27
11672;BME280;5892;43.412;24.612;2023-09-07T00:57:12;100513.50;;;21.79;53.57
11672;BME280;5892;43.412;24.612;2023-09-07T00:59:39;100517.06;;;21.76;53.22
11672;BME280;5892;43.412;24.612;2023-09-07T01:02:07;100517.78;;;21.70;53.24
11672;BME280;5892;43.412;24.612;2023-09-07T01:04:34;100509.28;;;21.59;53.48
11672;BME280;5892;43.412;24.612;2023-09-07T01:07:03;100502.88;;;21.59;53.51
11672;BME280;5892;43.412;24.612;2023-09-07T01:09:35;100510.81;;;21.56;53.46
11672;BME280;5892;43.412;24.612;2023-09-07T01:12:04;100522.50;;;21.66;53.59
11672;BME280;5892;43.412;24.612;2023-09-07T01:14:36;100517.75;;;21.66;53.46
11672;BME280;5892;43.412;24.612;2023-09-07T01:17:03;100512.50;;;21.61;53.45
11672;BME280;5892;43.412;24.612;2023-09-07T01:19:32;100507.69;;;21.62;53.61
11672;BME280;5892;43.412;24.612;2023-09-07T01:22:00;100485.56;;;21.42;53.91
11672;BME280;5892;43.412;24.612;2023-09-07T01:24:29;100510.09;;;21.60;54.02
11672;BME280;5892;43.412;24.612;2023-09-07T01:26:57;100506.81;;;21.54;53.61
11672;BME280;5892;43.412;24.612;2023-09-07T01:29:24;100502.47;;;21.56;53.87
11672;BME280;5892;43.412;24.612;2023-09-07T01:31:54;100509.66;;;21.58;53.90
11672;BME280;5892;43.412;24.612;2023-09-07T01:34:22;100496.09;;;21.56;54.06
11672;BME280;5892;43.412;24.612;2023-09-07T01:36:49;100498.81;;;21.52;53.88
11672;BME280;5892;43.412;24.612;2023-09-07T01:39:17;100500.44;;;21.53;54.17
11672;BME280;5892;43.412;24.612;2023-09-07T01:41:44;100505.69;;;21.59;53.66
11672;BME280;5892;43.412;24.612;2023-09-07T01:44:11;100500.78;;;21.48;53.95
11672;BME280;5892;43.412;24.612;2023-09-07T01:46:37;100489.97;;;21.43;53.70
11672;BME280;5892;43.412;24.612;2023-09-07T01:49:04;100499.88;;;21.41;53.56
11672;BME280;5892;43.412;24.612;2023-09-07T01:51:31;100494.16;;;21.30;53.89
11672;BME280;5892;43.412;24.612;2023-09-07T01:53:59;100496.91;;;21.27;54.49
11672;BME280;5892;43.412;24.612;2023-09-07T01:56:27;100509.63;;;21.24;54.36
11672;BME280;5892;43.412;24.612;2023-09-07T01:58:54;100492.38;;;21.15;54.61
11672;BME280;5892;43.412;24.612;2023-09-07T02:01:21;100509.97;;;21.19;54.53
11672;BME280;5892;43.412;24.612;2023-09-07T02:03:48;100499.00;;;21.07;55.23
11672;BME280;5892;43.412;24.612;2023-09-07T02:06:15;100506.59;;;21.10;54.87
11672;BME280;5892;43.412;24.612;2023-09-07T02:08:42;100518.88;;;21.05;55.08
11672;BME280;5892;43.412;24.612;2023-09-07T02:11:09;100508.13;;;21.04;55.11
11672;BME280;5892;43.412;24.612;2023-09-07T02:13:38;100504.53;;;21.03;55.30
11672;BME280;5892;43.412;24.612;2023-09-07T02:16:07;100518.78;;;20.98;55.55
11672;BME280;5892;43.412;24.612;2023-09-07T02:18:35;100517.53;;;20.96;55.41
11672;BME280;5892;43.412;24.612;2023-09-07T02:21:03;100515.94;;;20.95;55.69
11672;BME280;5892;43.412;24.612;2023-09-07T02:23:30;100509.94;;;20.93;55.72
11672;BME280;5892;43.412;24.612;2023-09-07T02:25:57;100510.28;;;20.88;55.84
11672;BME280;5892;43.412;24.612;2023-09-07T02:28:24;100518.66;;;20.91;55.68
11672;BME280;5892;43.412;24.612;2023-09-07T02:30:53;100515.88;;;20.91;55.70
11672;BME280;5892;43.412;24.612;2023-09-07T02:33:20;100511.53;;;20.94;55.39
11672;BME280;5892;43.412;24.612;2023-09-07T02:35:47;100517.91;;;20.94;55.35
11672;BME280;5892;43.412;24.612;2023-09-07T02:38:14;100493.56;;;20.88;54.71
11672;BME280;5892;43.412;24.612;2023-09-07T02:40:41;100518.78;;;20.98;54.89
11672;BME280;5892;43.412;24.612;2023-09-07T02:43:08;100513.63;;;21.00;55.01
11672;BME280;5892;43.412;24.612;2023-09-07T02:45:35;100505.34;;;21.04;54.93
11672;BME280;5892;43.412;24.612;2023-09-07T02:48:04;100498.84;;;20.96;54.12
11672;BME280;5892;43.412;24.612;2023-09-07T02:51:01;100528.88;;;21.10;54.72
11672;BME280;5892;43.412;24.612;2023-09-07T02:53:28;100492.44;;;20.92;54.67
11672;BME280;5892;43.412;24.612;2023-09-07T02:55:55;100530.81;;;21.06;54.96
11672;BME280;5892;43.412;24.612;2023-09-07T02:58:23;100533.25;;;21.07;54.83
11672;BME280;5892;43.412;24.612;2023-09-07T03:00:50;100535.19;;;21.03;55.00
11672;BME280;5892;43.412;24.612;2023-09-07T03:03:18;100519.47;;;20.92;55.48
11672;BME280;5892;43.412;24.612;2023-09-07T03:05:45;100534.56;;;20.91;55.94
11672;BME280;5892;43.412;24.612;2023-09-07T03:08:12;100528.16;;;20.87;56.08
11672;BME280;5892;43.412;24.612;2023-09-07T03:10:39;100524.41;;;20.76;56.28
11672;BME280;5892;43.412;24.612;2023-09-07T03:13:06;100542.31;;;20.78;56.38
11672;BME280;5892;43.412;24.612;2023-09-07T03:15:33;100522.28;;;20.69;56.58
11672;BME280;5892;43.412;24.612;2023-09-07T03:18:01;100544.66;;;20.73;56.86
11672;BME280;5892;43.412;24.612;2023-09-07T03:20:29;100513.78;;;20.58;56.82
11672;BME280;5892;43.412;24.612;2023-09-07T03:22:56;100530.25;;;20.67;56.74
11672;BME280;5892;43.412;24.612;2023-09-07T03:25:23;100536.97;;;20.66;56.64
11672;BME280;5892;43.412;24.612;2023-09-07T03:27:50;100537.34;;;20.64;56.94
11672;BME280;5892;43.412;24.612;2023-09-07T03:30:17;100542.47;;;20.62;56.91
11672;BME280;5892;43.412;24.612;2023-09-07T03:32:44;100534.88;;;20.59;56.86
11672;BME280;5892;43.412;24.612;2023-09-07T03:35:11;100539.63;;;20.59;57.29
11672;BME280;5892;43.412;24.612;2023-09-07T03:37:42;100528.31;;;20.48;57.27
11672;BME280;5892;43.412;24.612;2023-09-07T03:40:09;100549.28;;;20.65;56.93
11672;BME280;5892;43.412;24.612;2023-09-07T03:42:36;100550.09;;;20.65;56.65
11672;BME280;5892;43.412;24.612;2023-09-07T03:45:03;100557.63;;;20.65;56.98
11672;BME280;5892;43.412;24.612;2023-09-07T03:47:30;100545.56;;;20.57;57.13
11672;BME280;5892;43.412;24.612;2023-09-07T03:49:57;100553.28;;;20.67;56.77
11672;BME280;5892;43.412;24.612;2023-09-07T03:52:24;100560.88;;;20.67;57.08
11672;BME280;5892;43.412;24.612;2023-09-07T03:54:55;100565.63;;;20.66;56.81
11672;BME280;5892;43.412;24.612;2023-09-07T03:57:22;100565.53;;;20.63;56.91
11672;BME280;5892;43.412;24.612;2023-09-07T03:59:49;100559.47;;;20.57;56.99
11672;BME280;5892;43.412;24.612;2023-09-07T04:02:18;100559.13;;;20.59;57.04
11672;BME280;5892;43.412;24.612;2023-09-07T04:04:48;100570.22;;;20.55;56.83
11672;BME280;5892;43.412;24.612;2023-09-07T04:07:15;100563.16;;;20.61;57.23
11672;BME280;5892;43.412;24.612;2023-09-07T04:09:42;100565.19;;;20.64;56.89
11672;BME280;5892;43.412;24.612;2023-09-07T04:12:11;100561.66;;;20.67;56.70
11672;BME280;5892;43.412;24.612;2023-09-07T04:14:38;100561.09;;;20.58;56.83
11672;BME280;5892;43.412;24.612;2023-09-07T04:17:06;100556.03;;;20.41;56.93
11672;BME280;5892;43.412;24.612;2023-09-07T04:19:32;100579.28;;;20.52;57.06
11672;BME280;5892;43.412;24.612;2023-09-07T04:22:00;100574.47;;;20.49;57.24
11672;BME280;5892;43.412;24.612;2023-09-07T04:24:27;100566.78;;;20.43;57.63
11672;BME280;5892;43.412;24.612;2023-09-07T04:26:58;100572.72;;;20.41;57.12
11672;BME280;5892;43.412;24.612;2023-09-07T04:29:26;100578.28;;;20.41;57.33
11672;BME280;5892;43.412;24.612;2023-09-07T04:31:53;100536.25;;;20.27;57.50
11672;BME280;5892;43.412;24.612;2023-09-07T04:34:21;100578.00;;;20.46;57.43
11672;BME280;5892;43.412;24.612;2023-09-07T04:36:48;100590.38;;;20.49;57.41
11672;BME280;5892;43.412;24.612;2023-09-07T04:39:15;100544.56;;;20.23;57.21
11672;BME280;5892;43.412;24.612;2023-09-07T04:41:41;100568.09;;;20.49;57.60
11672;BME280;5892;43.412;24.612;2023-09-07T04:44:08;100582.56;;;20.58;57.65
11672;BME280;5892;43.412;24.612;2023-09-07T04:46:36;100582.50;;;20.54;57.27
11672;BME280;5892;43.412;24.612;2023-09-07T04:49:03;100579.78;;;20.58;57.53
11672;BME280;5892;43.412;24.612;2023-09-07T04:51:30;100575.47;;;20.60;57.57
11672;BME280;5892;43.412;24.612;2023-09-07T04:53:57;100579.41;;;20.59;57.76
11672;BME280;5892;43.412;24.612;2023-09-07T04:56:24;100582.88;;;20.76;57.13
11672;BME280;5892;43.412;24.612;2023-09-07T04:58:53;100582.13;;;20.79;57.02
11672;BME280;5892;43.412;24.612;2023-09-07T05:01:20;100565.41;;;20.79;56.48
11672;BME280;5892;43.412;24.612;2023-09-07T05:03:48;100578.84;;;20.96;56.63
11672;BME280;5892;43.412;24.612;2023-09-07T05:06:16;100594.50;;;21.04;55.78
11672;BME280;5892;43.412;24.612;2023-09-07T05:08:43;100597.81;;;21.13;55.90
11672;BME280;5892;43.412;24.612;2023-09-07T05:11:10;100602.66;;;21.16;55.68
11672;BME280;5892;43.412;24.612;2023-09-07T05:13:36;100590.72;;;21.16;55.82
11672;BME280;5892;43.412;24.612;2023-09-07T05:16:03;100610.63;;;21.14;55.62
11672;BME280;5892;43.412;24.612;2023-09-07T05:18:30;100604.94;;;21.10;56.11
11672;BME280;5892;43.412;24.612;2023-09-07T05:20:58;100601.78;;;21.12;55.97
11672;BME280;5892;43.412;24.612;2023-09-07T05:23:25;100605.63;;;21.27;55.94
11672;BME280;5892;43.412;24.612;2023-09-07T05:25:53;100605.97;;;21.25;56.33
11672;BME280;5892;43.412;24.612;2023-09-07T05:28:22;100608.59;;;21.41;55.28
11672;BME280;5892;43.412;24.612;2023-09-07T05:30:49;100608.59;;;21.41;54.99
11672;BME280;5892;43.412;24.612;2023-09-07T05:33:16;100607.75;;;21.37;55.13
11672;BME280;5892;43.412;24.612;2023-09-07T05:35:44;100612.75;;;21.50;55.11
11672;BME280;5892;43.412;24.612;2023-09-07T05:38:12;100613.63;;;21.58;55.48
11672;BME280;5892;43.412;24.612;2023-09-07T05:40:41;100607.50;;;21.75;54.79
11672;BME280;5892;43.412;24.612;2023-09-07T05:43:08;100610.97;;;21.95;53.78
11672;BME280;5892;43.412;24.612;2023-09-07T05:45:36;100612.03;;;22.17;54.06
11672;BME280;5892;43.412;24.612;2023-09-07T05:48:04;100614.63;;;22.36;53.20
11672;BME280;5892;43.412;24.612;2023-09-07T05:50:34;100621.31;;;22.65;52.21
11672;BME280;5892;43.412;24.612;2023-09-07T05:53:01;100623.22;;;22.57;51.47
11672;BME280;5892;43.412;24.612;2023-09-07T05:55:29;100621.03;;;22.77;51.05
11672;BME280;5892;43.412;24.612;2023-09-07T05:57:57;100616.94;;;22.67;51.61
11672;BME280;5892;43.412;24.612;2023-09-07T06:00:24;100619.38;;;23.16;50.63
11672;BME280;5892;43.412;24.612;2023-09-07T06:02:51;100634.19;;;23.75;48.54
11672;BME280;5892;43.412;24.612;2023-09-07T06:05:18;100626.84;;;23.53;47.57
11672;BME280;5892;43.412;24.612;2023-09-07T06:07:45;100616.16;;;23.66;48.34
11672;BME280;5892;43.412;24.612;2023-09-07T06:10:12;100521.78;;;23.59;46.16
11672;BME280;5892;43.412;24.612;2023-09-07T06:12:40;100625.69;;;24.55;46.05
11672;BME280;5892;43.412;24.612;2023-09-07T06:15:08;100618.09;;;24.76;45.58
11672;BME280;5892;43.412;24.612;2023-09-07T06:17:35;100624.13;;;24.75;44.50
11672;BME280;5892;43.412;24.612;2023-09-07T06:20:03;100635.31;;;24.71;44.76
11672;BME280;5892;43.412;24.612;2023-09-07T06:22:31;100620.44;;;24.46;44.43
11672;BME280;5892;43.412;24.612;2023-09-07T06:24:58;100626.78;;;24.18;45.54
11672;BME280;5892;43.412;24.612;2023-09-07T06:27:24;100618.75;;;24.17;45.12
11672;BME280;5892;43.412;24.612;2023-09-07T06:29:53;100624.22;;;23.85;46.45
11672;BME280;5892;43.412;24.612;2023-09-07T06:32:20;100627.72;;;23.71;47.62
11672;BME280;5892;43.412;24.612;2023-09-07T06:34:47;100630.16;;;23.76;47.02
11672;BME280;5892;43.412;24.612;2023-09-07T06:37:14;100632.81;;;24.31;45.98
11672;BME280;5892;43.412;24.612;2023-09-07T06:39:40;100635.31;;;24.75;44.85
11672;BME280;5892;43.412;24.612;2023-09-07T06:42:09;100632.94;;;25.09;44.03
11672;BME280;5892;43.412;24.612;2023-09-07T06:44:36;100640.56;;;25.08;44.22
11672;BME280;5892;43.412;24.612;2023-09-07T06:47:04;100639.72;;;24.79;44.22
11672;BME280;5892;43.412;24.612;2023-09-07T06:49:31;100643.75;;;24.85;44.35
11672;BME280;5892;43.412;24.612;2023-09-07T06:51:58;100646.56;;;25.03;44.44
11672;BME280;5892;43.412;24.612;2023-09-07T06:54:27;100631.75;;;25.24;44.27
11672;BME280;5892;43.412;24.612;2023-09-07T06:56:54;100648.09;;;25.79;42.81
11672;BME280;5892;43.412;24.612;2023-09-07T06:59:20;100649.94;;;26.17;42.00
11672;BME280;5892;43.412;24.612;2023-09-07T07:01:47;100642.31;;;26.17;42.04
11672;BME280;5892;43.412;24.612;2023-09-07T07:04:15;100621.59;;;25.94;42.20
11672;BME280;5892;43.412;24.612;2023-09-07T07:06:42;100647.13;;;26.17;41.75
11672;BME280;5892;43.412;24.612;2023-09-07T07:09:09;100586.41;;;25.57;41.71
11672;BME280;5892;43.412;24.612;2023-09-07T07:11:36;100650.91;;;25.82;41.80
11672;BME280;5892;43.412;24.612;2023-09-07T07:14:04;100650.53;;;25.66;42.32
11672;BME280;5892;43.412;24.612;2023-09-07T07:16:31;100641.34;;;25.62;43.18
11672;BME280;5892;43.412;24.612;2023-09-07T07:18:58;100647.34;;;25.53;44.19
11672;BME280;5892;43.412;24.612;2023-09-07T07:21:26;100646.53;;;25.49;43.68
11672;BME280;5892;43.412;24.612;2023-09-07T07:23:53;100649.78;;;25.37;43.13
11672;BME280;5892;43.412;24.612;2023-09-07T07:26:20;100652.97;;;25.18;44.23
11672;BME280;5892;43.412;24.612;2023-09-07T07:28:47;100650.19;;;25.11;44.41
11672;BME280;5892;43.412;24.612;2023-09-07T07:31:13;100641.75;;;25.28;44.18
11672;BME280;5892;43.412;24.612;2023-09-07T07:33:40;100639.34;;;25.48;43.59
11672;BME280;5892;43.412;24.612;2023-09-07T07:36:07;100640.06;;;25.81;42.96
11672;BME280;5892;43.412;24.612;2023-09-07T07:38:35;100636.44;;;25.94;42.84
11672;BME280;5892;43.412;24.612;2023-09-07T07:41:02;100637.50;;;26.32;43.18
11672;BME280;5892;43.412;24.612;2023-09-07T07:43:29;100634.91;;;26.63;41.95
11672;BME280;5892;43.412;24.612;2023-09-07T07:45:56;100630.00;;;26.70;42.09
11672;BME280;5892;43.412;24.612;2023-09-07T07:48:23;100640.38;;;26.84;41.43
11672;BME280;5892;43.412;24.612;2023-09-07T07:50:50;100648.66;;;27.05;41.05
11672;BME280;5892;43.412;24.612;2023-09-07T07:53:17;100633.94;;;26.83;42.25
11672;BME280;5892;43.412;24.612;2023-09-07T07:55:45;100645.50;;;26.37;42.03
11672;BME280;5892;43.412;24.612;2023-09-07T07:58:14;100648.66;;;26.46;42.53
11672;BME280;5892;43.412;24.612;2023-09-07T08:00:40;100619.41;;;26.37;41.83
11672;BME280;5892;43.412;24.612;2023-09-07T08:03:10;100645.03;;;26.46;42.72
11672;BME280;5892;43.412;24.612;2023-09-07T08:05:37;100638.22;;;26.43;42.34
11672;BME280;5892;43.412;24.612;2023-09-07T08:08:05;100625.28;;;26.56;43.02
11672;BME280;5892;43.412;24.612;2023-09-07T08:10:33;100634.91;;;26.63;43.48
11672;BME280;5892;43.412;24.612;2023-09-07T08:13:03;100629.16;;;26.77;43.26
11672;BME280;5892;43.412;24.612;2023-09-07T08:15:31;100632.38;;;26.79;42.57
11672;BME280;5892;43.412;24.612;2023-09-07T08:17:59;100625.81;;;27.00;43.39
11672;BME280;5892;43.412;24.612;2023-09-07T08:20:26;100623.16;;;27.23;42.56
11672;BME280;5892;43.412;24.612;2023-09-07T08:22:54;100628.25;;;27.38;42.56
11672;BME280;5892;43.412;24.612;2023-09-07T08:25:21;100637.25;;;27.67;41.78
11672;BME280;5892;43.412;24.612;2023-09-07T08:27:48;100631.16;;;27.31;41.76
11672;BME280;5892;43.412;24.612;2023-09-07T08:30:16;100607.34;;;26.98;42.68
11672;BME280;5892;43.412;24.612;2023-09-07T08:32:44;100624.94;;;27.06;42.66
11672;BME280;5892;43.412;24.612;2023-09-07T08:35:13;100634.22;;;27.03;42.62
11672;BME280;5892;43.412;24.612;2023-09-07T08:37:40;100620.28;;;26.82;43.70
11672;BME280;5892;43.412;24.612;2023-09-07T08:40:08;100623.53;;;26.77;44.08
11672;BME280;5892;43.412;24.612;2023-09-07T08:42:36;100628.31;;;26.87;43.84
11672;BME280;5892;43.412;24.612;2023-09-07T08:45:05;100626.34;;;26.77;44.13
11672;BME280;5892;43.412;24.612;2023-09-07T08:47:37;100610.81;;;26.62;44.33
11672;BME280;5892;43.412;24.612;2023-09-07T08:50:05;100615.50;;;26.79;44.32
11672;BME280;5892;43.412;24.612;2023-09-07T08:52:33;100623.56;;;26.73;44.80
11672;BME280;5892;43.412;24.612;2023-09-07T08:55:01;100621.16;;;26.72;44.24
11672;BME280;5892;43.412;24.612;2023-09-07T08:57:30;100610.72;;;26.72;44.53
11672;BME280;5892;43.412;24.612;2023-09-07T08:59:58;100606.22;;;26.82;44.47
11672;BME280;5892;43.412;24.612;2023-09-07T09:02:24;100613.75;;;26.99;44.11
11672;BME280;5892;43.412;24.612;2023-09-07T09:04:53;100611.91;;;27.23;43.80
11672;BME280;5892;43.412;24.612;2023-09-07T09:07:20;100607.84;;;27.31;42.92
11672;BME280;5892;43.412;24.612;2023-09-07T09:09:47;100610.94;;;27.40;43.14
11672;BME280;5892;43.412;24.612;2023-09-07T09:12:15;100607.34;;;27.39;42.35
11672;BME280;5892;43.412;24.612;2023-09-07T09:14:42;100614.94;;;27.42;42.75
11672;BME280;5892;43.412;24.612;2023-09-07T09:17:11;100586.00;;;27.42;42.57
11672;BME280;5892;43.412;24.612;2023-09-07T09:19:39;100595.41;;;27.66;42.05
11672;BME280;5892;43.412;24.612;2023-09-07T09:22:08;100606.47;;;27.84;42.00
11672;BME280;5892;43.412;24.612;2023-09-07T09:24:35;100585.22;;;27.79;42.18
11672;BME280;5892;43.412;24.612;2023-09-07T09:27:02;100606.94;;;27.78;41.39
11672;BME280;5892;43.412;24.612;2023-09-07T09:29:32;100600.53;;;27.74;41.53
11672;BME280;5892;43.412;24.612;2023-09-07T09:32:00;100593.66;;;27.79;42.08
11672;BME280;5892;43.412;24.612;2023-09-07T09:34:32;100599.25;;;27.83;41.33
11672;BME280;5892;43.412;24.612;2023-09-07T09:37:00;100595.75;;;27.71;41.35
11672;BME280;5892;43.412;24.612;2023-09-07T09:39:29;100592.38;;;27.50;41.89
11672;BME280;5892;43.412;24.612;2023-09-07T09:41:56;100580.19;;;27.63;41.82
11672;BME280;5892;43.412;24.612;2023-09-07T09:44:24;100585.69;;;27.74;41.82
11672;BME280;5892;43.412;24.612;2023-09-07T09:46:52;100593.56;;;27.86;41.78
11672;BME280;5892;43.412;24.612;2023-09-07T09:49:21;100594.09;;;28.08;41.01
11672;BME280;5892;43.412;24.612;2023-09-07T09:51:49;100572.13;;;28.26;41.07
11672;BME280;5892;43.412;24.612;2023-09-07T09:54:17;100582.94;;;28.31;40.73
11672;BME280;5892;43.412;24.612;2023-09-07T09:56:46;100575.47;;;28.17;39.32
11672;BME280;5892;43.412;24.612;2023-09-07T09:59:13;100570.06;;;28.00;40.27
11672;BME280;5892;43.412;24.612;2023-09-07T10:01:43;100583.91;;;27.87;39.86
11672;BME280;5892;43.412;24.612;2023-09-07T10:04:12;100584.16;;;27.66;40.98
11672;BME280;5892;43.412;24.612;2023-09-07T10:06:50;100570.06;;;28.00;40.61
11672;BME280;5892;43.412;24.612;2023-09-07T10:09:17;100570.09;;;28.27;40.12
11672;BME280;5892;43.412;24.612;2023-09-07T10:11:52;100570.16;;;28.50;39.33
11672;BME280;5892;43.412;24.612;2023-09-07T10:14:20;100555.66;;;28.51;38.76
11672;BME280;5892;43.412;24.612;2023-09-07T10:16:48;100552.97;;;28.68;38.63
11672;BME280;5892;43.412;24.612;2023-09-07T10:19:17;100560.66;;;28.90;37.91
11672;BME280;5892;43.412;24.612;2023-09-07T10:21:45;100557.28;;;28.99;38.00
11672;BME280;5892;43.412;24.612;2023-09-07T10:24:11;100531.97;;;28.72;37.35
11672;BME280;5892;43.412;24.612;2023-09-07T10:26:38;100541.41;;;28.85;37.58
11672;BME280;5892;43.412;24.612;2023-09-07T10:29:07;100552.91;;;28.71;37.52
11672;BME280;5892;43.412;24.612;2023-09-07T10:31:33;100549.06;;;28.35;38.33
11672;BME280;5892;43.412;24.612;2023-09-07T10:34:10;100543.06;;;28.02;38.34
11672;BME280;5892;43.412;24.612;2023-09-07T10:36:37;100534.50;;;28.09;39.08
11672;BME280;5892;43.412;24.612;2023-09-07T10:39:05;100538.50;;;28.12;37.77
11672;BME280;5892;43.412;24.612;2023-09-07T10:41:41;100529.81;;;27.99;38.29
11672;BME280;5892;43.412;24.612;2023-09-07T10:44:10;100525.59;;;28.14;37.78
11672;BME280;5892;43.412;24.612;2023-09-07T10:46:39;100514.34;;;28.11;37.90
11672;BME280;5892;43.412;24.612;2023-09-07T10:49:08;100502.41;;;28.03;37.86
11672;BME280;5892;43.412;24.612;2023-09-07T10:51:46;100507.81;;;28.21;38.00
11672;BME280;5892;43.412;24.612;2023-09-07T10:54:14;100525.28;;;28.36;37.82
11672;BME280;5892;43.412;24.612;2023-09-07T10:56:44;100523.53;;;28.45;37.46
11672;BME280;5892;43.412;24.612;2023-09-07T10:59:14;100518.72;;;28.42;37.25
11672;BME280;5892;43.412;24.612;2023-09-07T11:01:41;100518.19;;;28.51;37.21
11672;BME280;5892;43.412;24.612;2023-09-07T11:04:08;100513.66;;;28.57;36.67
11672;BME280;5892;43.412;24.612;2023-09-07T11:06:37;100496.00;;;28.53;36.67
11672;BME280;5892;43.412;24.612;2023-09-07T11:09:04;100503.19;;;28.81;36.80
11672;BME280;5892;43.412;24.612;2023-09-07T11:11:34;100513.84;;;28.46;36.21
11672;BME280;5892;43.412;24.612;2023-09-07T11:14:02;100509.19;;;28.36;37.24
11672;BME280;5892;43.412;24.612;2023-09-07T11:16:32;100497.34;;;28.45;36.94
11672;BME280;5892;43.412;24.612;2023-09-07T11:19:03;100501.59;;;28.56;36.56
11672;BME280;5892;43.412;24.612;2023-09-07T11:21:30;100495.88;;;28.60;36.36
11672;BME280;5892;43.412;24.612;2023-09-07T11:23:58;100488.25;;;28.84;36.36
11672;BME280;5892;43.412;24.612;2023-09-07T11:26:25;100501.09;;;28.61;36.10
11672;BME280;5892;43.412;24.612;2023-09-07T11:28:52;100487.84;;;28.58;36.62
11672;BME280;5892;43.412;24.612;2023-09-07T11:31:19;100481.94;;;28.76;36.85
11672;BME280;5892;43.412;24.612;2023-09-07T11:33:51;100486.34;;;28.77;36.48
11672;BME280;5892;43.412;24.612;2023-09-07T11:36:18;100473.19;;;28.90;36.22
11672;BME280;5892;43.412;24.612;2023-09-07T11:38:48;100479.84;;;28.80;36.64
11672;BME280;5892;43.412;24.612;2023-09-07T11:41:15;100465.88;;;28.73;36.60
11672;BME280;5892;43.412;24.612;2023-09-07T11:43:44;100473.09;;;28.74;36.10
11672;BME280;5892;43.412;24.612;2023-09-07T11:46:11;100474.81;;;28.68;36.55
11672;BME280;5892;43.412;24.612;2023-09-07T11:48:40;100459.47;;;28.69;36.62
11672;BME280;5892;43.412;24.612;2023-09-07T11:51:08;100461.66;;;29.04;36.44
11672;BME280;5892;43.412;24.612;2023-09-07T11:53:35;100464.34;;;29.12;34.97
11672;BME280;5892;43.412;24.612;2023-09-07T11:56:02;100451.28;;;28.78;36.51
11672;BME280;5892;43.412;24.612;2023-09-07T11:58:29;100466.09;;;28.59;36.51
11672;BME280;5892;43.412;24.612;2023-09-07T12:00:55;100468.28;;;28.94;36.31
11672;BME280;5892;43.412;24.612;2023-09-07T12:03:22;100450.44;;;29.01;35.60
11672;BME280;5892;43.412;24.612;2023-09-07T12:05:49;100459.41;;;29.16;36.09
11672;BME280;5892;43.412;24.612;2023-09-07T12:08:17;100450.66;;;29.30;35.06
11672;BME280;5892;43.412;24.612;2023-09-07T12:10:44;100442.47;;;28.96;35.69
11672;BME280;5892;43.412;24.612;2023-09-07T12:13:12;100453.44;;;28.90;35.20
11672;BME280;5892;43.412;24.612;2023-09-07T12:15:39;100456.22;;;28.94;35.06
11672;BME280;5892;43.412;24.612;2023-09-07T12:18:06;100458.19;;;28.74;35.48
11672;BME280;5892;43.412;24.612;2023-09-07T12:20:33;100448.88;;;28.77;35.56
11672;BME280;5892;43.412;24.612;2023-09-07T12:23:01;100448.63;;;28.91;35.31
11672;BME280;5892;43.412;24.612;2023-09-07T12:25:30;100449.03;;;28.89;34.60
11672;BME280;5892;43.412;24.612;2023-09-07T12:27:58;100433.56;;;28.78;34.70
11672;BME280;5892;43.412;24.612;2023-09-07T12:30:24;100443.78;;;28.91;35.26
11672;BME280;5892;43.412;24.612;2023-09-07T12:32:52;100414.91;;;28.84;34.95
11672;BME280;5892;43.412;24.612;2023-09-07T12:35:19;100427.66;;;29.12;35.21
11672;BME280;5892;43.412;24.612;2023-09-07T12:37:46;100440.75;;;29.22;35.00
11672;BME280;5892;43.412;24.612;2023-09-07T12:40:13;100434.25;;;29.25;34.32
11672;BME280;5892;43.412;24.612;2023-09-07T12:42:44;100419.34;;;29.44;33.66
11672;BME280;5892;43.412;24.612;2023-09-07T12:45:12;100437.69;;;29.52;33.22
11672;BME280;5892;43.412;24.612;2023-09-07T12:47:39;100424.56;;;29.45;32.98
11672;BME280;5892;43.412;24.612;2023-09-07T12:50:07;100422.28;;;29.57;33.44
11672;BME280;5892;43.412;24.612;2023-09-07T12:52:35;100418.50;;;29.63;33.25